Observations at @ca for Latest


KACV 131353Z AUTO 00000KT 1/4SM R32/2800V4500FT FG VV001 05/04 A2999 RMK AO2
 SLP163 T00500044=
KACV 131401Z AUTO 00000KT 3/4SM R32/2200V4500FT BR VV001 04/04 A2999 RMK AO2
 T00440039=
KACV 131407Z AUTO 00000KT 2SM R32/2200V6000FT BR OVC001 04/04 A2999 RMK AO2
 T00440039=
KACV 131417Z AUTO 00000KT 3/4SM R32/2000V2600FT BR VV001 04/04 A2999 RMK AO2
 T00440039=
KACV 131427Z AUTO 00000KT 1 1/2SM R32/1800V2200FT BR OVC001 04/04 A2999 RMK AO2
 T00390039=
KACV 131434Z AUTO 00000KT 3/4SM R32/2200V3000FT BR VV001 04/03 A2999 RMK AO2
 T00390033=
KAPC 131354Z AUTO 00000KT 6SM BR CLR 07/07 A2999 RMK AO2 SLP147 T00720067=
KAVX 131351Z AUTO 32005KT 10SM CLR 19/M06 A3002 RMK AO2 SLP145 T01891056 $=
KBAB 131358Z AUTO 00000KT 10SM HZ CLR 07/03 A2998 RMK AO2 SLP155 T00710028 $=
KBAB 131358Z COR AUTO 00000KT 10SM CLR 07/03 A2998 RMK AO2A SLP155 T00710028 $
 COR 1434=
KBFL 131354Z AUTO 00000KT 7SM CLR 11/02 A2999 RMK AO2 SLP154 T01110022=
KBIH 131356Z AUTO 31006KT 10SM CLR 02/M06 A3013 RMK AO2 SLP191 T00221061=
KBLH 131352Z AUTO 00000KT 10SM CLR 10/M08 A2998 RMK AO2 SLP149 T01001078=
KBLU 131352Z AUTO 13003KT 10SM CLR 14/M08 A3017 RMK AO2 SLP155 T01391078=
KBUR 131353Z 00000KT 10SM SCT001 10/05 A2999 RMK AO2 SLP146 T01000050 $=
KCCR 131353Z AUTO 00000KT 4SM HZ CLR 10/06 A2999 RMK AO2 SLP142 T01000056=
KCEC 131356Z AUTO 15004KT 1/4SM FG VV002 07/07 A3000 RMK AO2 SLP158 T00670067=
KCIC 131355Z AUTO 00000KT 10SM CLR 12/03 A3000 RMK AO1=
KCIC 131415Z AUTO 00000KT 10SM CLR 10/02 A3001 RMK AO1=
KCMA 131355Z 00000KT 3/4SM BR VV002 12/10 A2999 RMK AO2 VIS 1/2V4 SLP164
 T01170100=
KCNO 131353Z AUTO 00000KT 1/4SM FG VV008 09/08 A3001 RMK AO2 SLP160 T00890078 $=
KCNO 131401Z AUTO 00000KT 1SM BR VV007 09/08 A3001 RMK AO2 T00890083 $=
KCNO 131413Z AUTO 00000KT 1/2SM FG VV009 09/09 A3002 RMK AO2 T00940089 $=
KCQT 131352Z AUTO 00000KT 2 1/2SM BR OVC004 15/13 A2999 RMK AO2 SLP154
 T01500128=
KCQT 131426Z AUTO 00000KT 2 1/2SM HZ OVC005 16/13 A2999=
KCQT 131426Z AUTO 00000KT 2 1/2SM HZ OVC005 16/13 A2999 RMK AO2 T01560128=
KCQT 131435Z AUTO 00000KT 1 3/4SM HZ OVC006 15/12 A2999=
KCQT 131435Z AUTO 00000KT 1 3/4SM HZ OVC006 15/12 A2999 RMK AO2 T01500122=
KCQT 131438Z AUTO 00000KT 2SM HZ OVC006 16/13 A3000=
KCQT 131438Z AUTO 00000KT 2SM HZ OVC006 16/13 A3000 RMK AO2 T01560128=
KCRQ 131353Z AUTO 00000KT 1/2SM R24/2400V4500FT FG VV002 13/12 A2999 RMK AO2
 SLP153 T01330122=
KCRQ 131409Z AUTO 00000KT 1/4SM R24/1600V3000FT FG VV002 13/12 A2999 RMK AO2
 T01280122=
KCRQ 131409Z AUTO 00000KT 1/4SM R24/1600V3000FT FG VV002 13/12A2999=
KCZZ 131352Z AUTO 05008KT 07/M06 A3002 RMK AO1 SLP148 T00671061=
KDAG 131350Z AUTO 26008KT 10SM CLR 17/M08 A3004 RMK AO2 SLP153 T01721083=
KEDW 131358Z 00000KT 90SM SCT250 04/M13 A3004 RMK AO2A SLP169 T00391134=
KEED 131356Z AUTO 22004KT 10SM CLR 10/M08 A3001 RMK AO2 SLP147 T01001078=
KFAT 131353Z 00000KT 10SM CLR 11/04 A3000 RMK AO2 SLP158 T01060039=
KFOT 131345Z AUTO 13008KT 10SM CLR 08/07 A2999 RMK AO1=
KFOT 131410Z AUTO 13006KT 10SM CLR 08/07 A2999 RMK AO1=
KFOT 131430Z AUTO 13006KT 10SM CLR 08/07 A2999 RMK AO1=
KFUL 131353Z AUTO 00000KT 1SM BR OVC002 A2999 RMK AO2 SLPNO $=
KFUL 131417Z AUTO 00000KT 3/4SM BR OVC002 A3000 RMK AO2 $=
KHHR 131353Z AUTO 00000KT 4SM HZ OVC006 15/12 A3000 RMK AO2 SLP158 T01500122=
KHHR 131434Z 00000KT 2 1/2SM HZ OVC006 15/12 A3001 RMK AO2 T01500122=
KHJO 131353Z AUTO 00000KT 2SM BR CLR 07/06 A3001 RMK AO2 SLP164 T00670056 TSNO=
KHJO 131429Z AUTO 00000KT 1 3/4SM BR CLR 07/06 A3001 RMK AO2 T00670056 TSNO=
KHWD 131354Z AUTO 00000KT 10SM CLR 11/06 A2999 RMK AO2 SLP164 T01060061=
KIPL 131353Z AUTO 16004KT 10SM CLR 12/M04 A2993 RMK AO2 SLP136 T01221039=
KIZA 131355Z AUTO 00000KT 10SM CLR 05/04 A3000 RMK AO2=
KIZA 131415Z AUTO 00000KT 10SM CLR 06/05 A3000 RMK AO2=
KIZA 131435Z AUTO 00000KT 10SM CLR 06/05 A3000 RMK AO2=
KLAX 131353Z VRB03KT 2 1/2SM BR FEW005 OVC007 16/13 A2999 RMK AO2 SLP155 VIS
 N-NE 1 1/2 T01610128=
KLGB 131353Z AUTO 00000KT 2SM BR OVC004 14/13 A3000 RMK AO2 SLP157 T01440128=
KLGB 131435Z 07003KT 1 1/4SM BR OVC004 14/13 A3000 RMK AO2 T01390128=
KLPC 131356Z AUTO 06003KT 1SM -RA BR OVC002 07/07 A3001 RMK AO2 RAE07B55 SLP162
 P0000 T00720072=
KLPC 131407Z AUTO VRB03KT 2SM BR OVC002 07/07 A3001 RMK AO2 RAE06 P0000=
KLPC 131415Z AUTO 08003KT 3SM BR OVC002 07/07 A3001 RMK AO2 RAE06 P0000=
KLPC 131421Z AUTO 08003KT 1 3/4SM BR OVC002 07/07 A3001 RMK AO2 VIS 1 1/4V5
 RAE06 P0000=
KLPC 131429Z AUTO 07003KT 3/4SM BR OVC002 07/07 A3001 RMK AO2 RAE06 P0000=
KLVK 131353Z AUTO 09003KT 7SM CLR 08/03 A2999 RMK AO2 SLP153 T00830033=
KMAE 131353Z AUTO 09003KT 10SM CLR 09/02 A3000 RMK AO2 SLP158 T00890022=
KMCC 131345Z AUTO 00000KT 10SM CLR 08/06 A3001 RMK AO2=
KMCC 131415Z AUTO 00000KT 10SM CLR 08/06 A3001 RMK AO2=
KMCC 131435Z AUTO 00000KT 10SM 08/06 A3001 RMK AO2=
KMCE 131353Z AUTO 00000KT 6SM HZ CLR 07/04 A2999 RMK AO2 SLP155 T00670039=
KMER 131355Z AUTO 7SM CLR 06/06 A3000 RMK AO1=
KMHR 131345Z 00000KT 10SM SKC 07/05 A2998=
KMHS 131356Z AUTO 00000KT 10SM CLR M01/M04 A3009 RMK AO2 SLP214 T10061044=
KMHV 131340Z AUTO 33004KT 8SM CLR 07/M09 A3006 RMK A01=
KMHV 131400Z AUTO 35005KT 8SM CLR 08/M09 A3006 RMK A01=
KMHV 131420Z AUTO 32005KT 6SM HZ CLR 07/M09 A3006 RMK A01=
KMMH 131355Z AUTO 36003KT 10SM CLR M03/M09 A3025 RMK AO2 T10341093=
KMMH 131415Z AUTO 00000KT 10SM CLR M02/M09 A3025 RMK AO2 T10221094=
KMMH 131435Z AUTO 00000KT 10SM CLR M03/M10 A3025 RMK AO2 T10331099=
KMOD 131353Z AUTO 13003KT 5SM BR CLR 08/06 A2999 RMK AO2 SLP154 T00780056=
KMRY 131354Z AUTO 00000KT 1/2SM FG VV001 10/08 A3000 RMK AO2 SLP173 T01000083
 RVRNO=
KMRY 131419Z AUTO 00000KT 1/4SM FG VV001 10/08 A3001 RMK AO2 T01000083 RVRNO=
KMRY 131443Z AUTO 23003KT 1/2SM FG VV001 10/09 A3002 RMK AO2 T01000089 RVRNO=
KMYF 131353Z 32003KT 1/4SM FG VV002 14/13 A3000 RMK AO2 SLP156 T01390128=
KMYV 131353Z AUTO 00000KT 10SM 06/05 A3000 RMK AO2 SLP161 T00610050 $=
KNFG 131355Z AUTO 05005KT 1/4SM FG VV002 09/08 A3000 RMK AO2 SLP159 T00890083 $=
KNID 131356Z 00000KT 10SM FEW280 04/M09 A3005 RMK AO2 SLP175 T00441089 $=
KNJK 131356Z 00000KT 10SM FEW300 13/M08 A2995 RMK AO2 SLP159 T01281078 $=
KNKX 131355Z VRB03KT 1/4SM FG VV001 14/13 A3000 RMK AO2 SLP153 T01440128 $=
KNKX 131430Z 00000KT 1/4SM FG VV002 14/12 A3000 RMK AO2 T01390122 $=
KNLC 131356Z AUTO 00000KT 10SM CLR 07/M02 A3000 RMK AO2 SLP161 T00671017=
KNRS 131356Z AUTO 3SM BR OVC005 A3000 RMK AO2 SLP160 $=
KNRS 131431Z AUTO 2SM BR OVC005 A3001=
KNRS 131431Z AUTO 2SM BR OVC005 A3001 RMK AO2 $=
KNSI 131356Z AUTO 30004KT 6SM HZ OVC003 A3000 RMK AO2 SLPNO $=
KNSI 131434Z 28005KT 4SM BR OVC003 13/11 A3001 RMK AO2 T01280111 $=
KNTD 131357Z 03003KT 1/4SM FG VV002 12/12 A3000 RMK AO2 SLP160 T01220117 VISNO
 N $=
KNUC 131356Z AUTO 32005KT OVC007 14/ A3002 RMK AO2 SLP162 T0144 $=
KNUQ 131356Z A3000 RMK AO2 SLP163 PWINO $=
KNXP 131356Z AUTO 30006KT 9SM CLR 10/M09 A3011 RMK AO2 SLP173 T01001089 $=
KNZY 131352Z 01006KT 3SM BR BKN007 16/13 A2999 RMK AO2 SLP155 T01610133=
KO54 131355Z AUTO 00000KT 10SM CLR 01/00 A3010 RMK AO1=
KO54 131415Z AUTO 00000KT 10SM CLR 01/00 A3010 RMK AO1=
KO54 131435Z AUTO 00000KT 10SM CLR 01/00 A3010 RMK AO1=
KOAK 131353Z 00000KT 8SM MIFG FEW005 BKN250 11/09 A2999 RMK AO2 SLP156
 T01060089=
KONT 131353Z 00000KT 8SM VCFG FEW006 FEW250 12/06 A3000 RMK AO2 SLP150
 T01220056=
KOVE 131353Z AUTO 14003KT 10SM CLR 11/03 A3000 RMK AO2 SLP161 T01060033=
KOXR 131351Z AUTO 04004KT 1/2SM FG VV002 12/11 A2999 RMK AO2 SLP156 T01170106=
KPMD 131353Z 20003KT 10SM CLR 06/M08 A3006 RMK AO2 SLP170 T00611078=
KPRB 131353Z AUTO 00000KT 10SM CLR 06/M01 A3001 RMK AO2 SLP160 T00561011=
KPSP 131353Z 01005KT 10SM CLR 16/M04 A2997 RMK AO2 SLP145 T01561039=
KPTV 131356Z AUTO 00000KT 10SM CLR 08/03 A3001 RMK AO2 SLP162 T00830028=
KRAL 131353Z AUTO 05003KT 8SM CLR 11/06 A3000 RMK AO2 SLP147 T01110061=
KRBL 131354Z AUTO 31005KT 10SM CLR 09/04 A3000 RMK AO2 SLP156 T00940044=
KRDD 131353Z AUTO 00000KT 10SM CLR 07/03 A2999 RMK AO2 SLP154 T00720033=
KRIV 131358Z AUTO 00000KT 10SM CLR 05/03 A3001 RMK AO2 SLP160 T00490028=
KRNM 131353Z AUTO 00000KT 10SM CLR 06/00 A3000 RMK AO2 SLP155 T00560000=
KSAC 131353Z AUTO 00000KT 5SM BR CLR 08/06 A2999 RMK AO2 SLP154 T00780061 $=
KSAN 131351Z 00000KT 2 1/2SM BR OVC005 17/15 A3001 RMK AO2 SLP161 CIG 003V007
 T01670150=
KSAN 131410Z 03003KT 2 1/2SM BR OVC007 17/14 A3001 RMK AO2 CIG 006V008
 T01670144=
KSAN 131443Z 04004KT 3SM BR BKN007 16/14 A3002 RMK AO2 CIG 006V009 T01610144=
KSBA 131353Z 03005KT 6SM BR OVC008 13/12 A2999 RMK AO2 SLP154 T01330117=
KSBD 131300Z AUTO 00000KT 10SM CLR 12/M01 A3000 RMK AO2 T01201009=
KSBD 131324Z AUTO 05003KT 10SM CLR 09/M02 A3000 RMK AO2 T00931019=
KSBD 131342Z AUTO 05004KT 10SM CLR 10/M01 A3000 RMK AO2 T00961012=
KSBP 131356Z 00000KT 1/2SM FG VV002 08/08 A3000 RMK AO2 SLP159 T00830078=
KSBP 131412Z 00000KT 1/4SM FG VV002 08/08 A3000 RMK AO2 T00830078=
KSCK 131355Z AUTO 00000KT 5SM HZ CLR 08/04 A2999 RMK AO2 SLP154 T00830039=
KSDB 131353Z AUTO 32013KT 10SM CLR 16/M08 A3013 RMK AO2 SLP157 T01611078=
KSDM 131353Z AUTO 00000KT 1/4SM FG VV001 11/09 A2999 RMK AO2 SLP154 T01060094=
KSEE 131355Z AUTO 00000KT 4SM BR FEW003 08/08 A2999 RMK AO2=
KSEE 131415Z AUTO 00000KT 4SM BR CLR 08/08 A3000 RMK AO2=
KSEE 131435Z AUTO 00000KT 2SM BR CLR 08/08 A3001 RMK AO2=
KSFO 131356Z 29006KT 8SM FEW200 11/08 A2999 RMK AO2 SLP154 T01060078=
KSIY 131353Z AUTO 00000KT 10SM CLR M01/M04 A3012 RMK AO2 SLP220 T10111039=
KSJC 131353Z 00000KT 10SM CLR 11/07 A2999 RMK AO2 SLP156 T01110072 $=
KSLI 131358Z AUTO 00000KT 1 1/4SM BR OVC001 14/14 A3000 RMK AO2 SLP162
 T01390137 PNO $=
KSLI 131408Z AUTO 00000KT 1 1/2SM BR OVC001 14/14 A3000 RMK AO2 SLP162 PNO $=
KSLI 131408Z COR 00000KT 1/2SM R22L/1600FT FG OVC001 14/14 A3000 RMK AO2A
 SLP162 COR 1410=
KSMF 131353Z 07003KT 7SM BKN200 07/06 A2998 RMK AO2 SLP153 T00720056=
KSMO 131351Z AUTO 00000KT 2SM BR OVC003 14/13 A3000 RMK AO2 SLP157 T01390128=
KSMO 131431Z AUTO 00000KT 1 1/2SM BR OVC003 14/13 A3000 RMK AO2 T01390128=
KSMX 131251Z AUTO 08003KT 1/4SM R12/2200V2800FT FG VV002 09/08 A3000 RMK AO2
 SLP161 T00890078 TSNO=
KSMX 131355Z 00000KT 1/4SM R12/1400V2200FT FG VV001 08/07 A3000=
KSMX 131355Z 00000KT 1/4SM R12/1400V2200FT FG VV001 08/07 A3000 RMK AO2
 T00830072=
KSNA 131353Z 00000KT 1 3/4SM HZ OVC003 16/13 A3000 RMK AO2 SLP157 T01560128 $=
KSNA 131353Z COR 00000KT 1 3/4SM HZ OVC003 16/13 A3000 RMK AO2 SLP157 T01560128
 $=
KSNS 131353Z 00000KT 3SM BR OVC004 09/08 A3000 RMK AO2 SLP167 T00940083=
KSQL 131355Z AUTO 00000KT 10SM CLR 11/09 A3000 RMK AO2=
KSQL 131400Z AUTO 00000KT 10SM CLR 10/09 A3000 RMK AO2=
KSQL 131415Z AUTO 00000KT 10SM CLR 11/09 A3000 RMK AO2=
KSQL 131435Z AUTO 00000KT 10SM CLR 11/09 A3000 RMK AO2=
KSQL 131440Z AUTO 00000KT 10SM CLR 11/09 A3001 RMK AO2=
KSTS 131353Z AUTO 00000KT 10SM CLR 07/06 A2999 RMK AO2 SLP150 T00720061=
KSUU 131358Z 00000KT 10SM CLR 07/03 A2999 RMK AO2A SLP162 T00680034 $=
KSVE 131355Z AUTO 27003KT 10SM CLR 00/M02 A3015 RMK AO2=
KSVE 131415Z AUTO 00000KT 10SM CLR M01/M02 A3015 RMK AO2=
KSVE 131435Z AUTO 00000KT 10SM CLR 00/M01 A3016 RMK AO2=
KTRK 131255Z AUTO 00000KT 10SM CLR M03/M07 A3022 RMK AO2=
KTRK 131315Z AUTO 00000KT 10SM CLR M05/M08 A3022 RMK AO2=
KTRK 131335Z AUTO 00000KT 7SM CLR M06/M08 A3022 RMK AO2=
KTRM 131352Z AUTO 00000KT 10SM CLR 07/01 A2993 RMK AO2 SLP134 T00720011=
KTVL 131353Z AUTO 20003KT 10SM CLR M03/M07 A3021 RMK AO2 SLP226 T10281072=
KUKI 131356Z AUTO 00000KT 10SM CLR 07/04 A3002 RMK AO2 SLP160 T00670044=
KVBG 131358Z AUTO M 5/8SM R30/4500FT BR VV001 08/08 A3000 RMK AO2 SLP163
 T00760075 $=
KVBG 131354Z AUTO M 5/8SM R30/4000FT BR VV001 08/07 A3000 RMK AO2 SLP163 $=
KVBG 131423Z AUTO M 3/4SM R30/5000FT BR VV001 07/07 A3000 RMK AO2 SLPNO $=
KVBG 131428Z AUTO M 1/2SM R30/3500FT FG VV001 07/07 A3001 RMK AO2 SLP166 $=
KVBG 131438Z AUTO M 7/8SM R30/P6000FT BR VV001 06/06 A3002 RMK AO2 SLP170 $=
KVBG 131443Z AUTO M 4SM BR FEW005 06/06 A3002 RMK AO2 SLP170 $=
KVCV 131346Z 15004KT 10SM SKC A3006=
KVIS 131356Z AUTO 10005KT 9SM CLR 08/05 A3001 RMK AO2 SLP170 T00830050=
KVNY 131351Z 00000KT 10SM CLR 10/07 A2999 RMK AO2 SLP150 T01000072 $=
KWJF 131356Z AUTO 00000KT 10SM CLR 03/M09 A3006 RMK AO2 SLP181 T00331089=
KWVI 131353Z AUTO 04004KT 1/4SM FG VV002 10/09 A3001 RMK AO2 SLP161 T01000094=